• Join FlightAware (Why Join?)
  • Login
  • US Flag 
11:42AM EST


 

Airport Tracker/Info


-or-


 

Live Flight TrackerFlight Track Log ✈ JBU216 ✈ 16-Apr-2013 ✈ KLGB - KJFK

Flight Track Log - Related Links

Times and Time Zones

All times are in EDT time to prevent confusion due to time zone crossing. See the JBU216 flight status page for this flight to view local times or setup timezone preferences in your user account.

Time Position Orientation Groundspeed Altitude Reporting Facility
EDT Latitude Longitude Course Direction KTS MPH feet Rate Location/Type
12:15AM 33.8414 -118.1819 40° Northeast 173 199 1,900  Level Los Angeles Center
12:16AM 33.8222 -118.2406 249° West 264 304 3,700 2,400 Climbing Los Angeles Center
12:17AM 33.7478 -118.2558 190° South 266 306 6,900 2,580 Climbing Los Angeles Center
12:18AM 33.7211 -118.0016 18° North  Level FlightAware Approximate
12:18AM 33.6750 -118.2378 168° South 291 335 9,100  Level Los Angeles Center
12:19AM 33.8493 -117.9500 North  Level FlightAware Approximate
12:19AM 33.6892 -118.1506 79° East 307 353 10,800  Level Los Angeles Center
12:20AM 33.9643 -117.8690 40° Northeast  Level FlightAware Approximate
12:20AM 33.7586 -118.0850 38° Northeast 319 367 12,400  Level Los Angeles Center
12:21AM 33.8339 -118.0125 39° Northeast 340 391 14,600 2,160 Climbing Los Angeles Center
12:22AM 33.9286 -117.9231 38° Northeast 359 413 16,800 1,620 Climbing Los Angeles Center
12:23AM 34.0117 -117.8461 38° Northeast 374 430 18,000 1,080 Climbing Los Angeles Center
12:24AM 34.1047 -117.7611 37° Northeast 413 475 19,100 1,200 Climbing Los Angeles Center
12:25AM 34.1867 -117.6450 50° Northeast 451 519 20,500 1,200 Climbing Los Angeles Center
12:26AM 34.2728 -117.5283 48° Northeast 463 533 21,600 960 Climbing Los Angeles Center
12:27AM 34.3606 -117.4086 48° Northeast 474 545 22,500 1,020 Climbing Los Angeles Center
12:28AM 34.4544 -117.2792 49° Northeast 488 562 23,700 1,020 Climbing Los Angeles Center
12:29AM 34.5464 -117.1544 48° Northeast 497 572 24,700 840 Climbing Los Angeles Center
12:30AM 34.6389 -117.0236 49° Northeast 508 585 25,500 780 Climbing Los Angeles Center
12:31AM 34.7364 -116.8889 49° Northeast 527 606 26,400 840 Climbing Los Angeles Center
12:32AM 34.8550 -116.7239 49° Northeast 542 624 27,300 840 Climbing Los Angeles Center
12:33AM 34.9561 -116.5822 49° Northeast 553 636 28,200 1,020 Climbing Los Angeles Center
12:34AM 35.0622 -116.4461 46° Northeast 557 641 29,400 1,320 Climbing Los Angeles Center
12:35AM 35.1678 -116.3183 45° Northeast 544 626 31,000 1,260 Climbing Los Angeles Center
12:36AM 35.2706 -116.1900 46° Northeast 534 615 32,100 840 Climbing Los Angeles Center
12:37AM 35.3725 -116.0606 46° Northeast 531 611 32,800 420 Climbing Los Angeles Center
12:38AM 35.4756 -115.9292 46° Northeast 535 616 33,000 60 Climbing Los Angeles Center
12:39AM 35.5925 -115.7844 45° Northeast 535 616 33,000  Level Los Angeles Center
12:41AM 35.6950 -115.6533 46° Northeast 533 613 33,000  Level Los Angeles Center
12:42AM 35.7969 -115.5225 46° Northeast 534 615 33,000  Level Los Angeles Center
12:43AM 35.8989 -115.3917 46° Northeast 533 613 33,000  Level Los Angeles Center
12:44AM 35.9997 -115.2606 46° Northeast 532 612 33,000  Level Los Angeles Center
12:45AM 36.0958 -115.0772 57° Northeast 534 615 33,000  Level Los Angeles Center
12:46AM 36.1564 -114.9086 66° East 539 620 33,000 -60 Level Los Angeles Center
12:47AM 36.2089 -114.7333 70° East 544 626 32,900  Descending Los Angeles Center
12:48AM 36.2614 -114.5572 70° East 546 628 33,000  Climbing Los Angeles Center
12:49AM 36.3158 -114.3808 69° East 549 632 33,000  Level Los Angeles Center
12:50AM 36.3686 -114.2033 70° East 550 633 33,000  Level Los Angeles Center
12:51AM 36.4217 -114.0244 70° East 551 634 33,000  Level Los Angeles Center
12:52AM 36.4750 -113.8456 70° East 554 638 33,000  Level Los Angeles Center
12:53AM 36.5344 -113.6442 70° East 553 636 33,000  Level Los Angeles Center
12:54AM 36.5869 -113.4656 70° East 553 636 33,000  Level Los Angeles Center
12:55AM 36.6392 -113.2881 70° East 551 634 33,000  Level Los Angeles Center
12:56AM 36.6914 -113.1108 70° East 549 632 33,000  Level Los Angeles Center
12:57AM 36.7428 -112.9342 70° East 547 629 33,000  Level Los Angeles Center
12:58AM 36.7933 -112.7569 70° East 547 629 33,000  Level Los Angeles Center
12:59AM 36.8556 -112.5439 70° East 549 632 33,000  Level Los Angeles Center
01:00AM 36.9058 -112.3658 71° East 548 631 33,000  Level Los Angeles Center
01:01AM 36.9561 -112.1864 71° East 550 633 33,100  Climbing Los Angeles Center
01:02AM 36.9958 -112.0456 71° East 550 633 33,000 -60 Descending Denver Center
01:03AM 37.0467 -111.8650 71° East 554 638 33,000  Level Denver Center
01:04AM 37.0964 -111.6861 71° East 550 633 33,000  Level Denver Center
01:05AM 37.1450 -111.5042 71° East 552 635 33,000  Level Denver Center
01:06AM 37.1928 -111.3247 71° East 551 634 33,000  Level Denver Center
01:07AM 37.2408 -111.1422 72° East 553 636 33,000 420 Level Denver Center
01:08AM 37.2900 -110.9586 71° East 557 641 33,900 780 Climbing Denver Center
01:09AM 37.3386 -110.7756 71° East 555 639 34,600 540 Climbing Denver Center
01:10AM 37.3864 -110.5939 72° East 551 634 35,000 180 Climbing Denver Center
01:11AM 37.4342 -110.4142 71° East 545 627 35,000  Level Denver Center
01:12AM 37.4858 -110.2139 72° East 552 635 35,000  Level Denver Center
01:13AM 37.5306 -110.0369 72° East 553 636 35,000  Level Denver Center
01:14AM 37.5842 -109.8289 72° East 557 641 35,000  Level Denver Center
01:15AM 37.6294 -109.6514 72° East 556 640 35,000  Level Denver Center
01:16AM 37.6739 -109.4736 72° East 554 638 35,000  Level Denver Center
01:17AM 37.7250 -109.2653 73° East 556 640 35,000  Level Denver Center
01:18AM 37.7703 -109.0858 72° East 557 641 35,000  Level Denver Center
01:19AM 37.8164 -108.9078 72° East 556 640 35,000  Level Denver Center
01:20AM 37.8764 -108.7331 66° East 563 648 35,000  Level Denver Center
01:21AM 37.9472 -108.5314 66° East 563 648 35,000  Level Denver Center
01:22AM 38.0072 -108.3597 66° East 559 643 35,000  Level Denver Center
01:23AM 38.0669 -108.1875 66° East 558 642 35,000  Level Denver Center
01:24AM 38.1347 -107.9883 67° East 564 649 35,000  Level Denver Center
01:25AM 38.1931 -107.8150 67° East 561 646 35,000  Level Denver Center
01:26AM 38.2519 -107.6414 67° East 560 644 35,000  Level Denver Center
01:27AM 38.3208 -107.4367 67° East 564 649 35,000  Level Denver Center
01:28AM 38.3786 -107.2625 67° East 561 646 35,000  Level Denver Center
01:29AM 38.4394 -107.0756 67° East 562 647 35,000  Level Denver Center
01:30AM 38.4825 -106.8861 74° East 557 641 35,000  Level Denver Center
01:31AM 38.5189 -106.6975 76° East 552 635 35,000  Level Denver Center
01:32AM 38.5561 -106.5114 76° East 544 626 35,000 -60 Level Denver Center
01:33AM 38.5925 -106.3253 76° East 542 624 34,900  Descending Denver Center
01:34AM 38.6278 -106.1422 76° East 535 616 35,000  Climbing Denver Center
01:35AM 38.6633 -105.9550 76° East 539 620 35,000  Level Denver Center
01:36AM 38.6992 -105.7683 76° East 536 617 35,000  Level Denver Center
01:37AM 38.7336 -105.5800 77° East 541 623 35,000  Level Denver Center
01:38AM 38.7692 -105.3883 77° East 550 633 35,000  Level Denver Center
01:39AM 38.8042 -105.2000 77° East 544 626 35,000  Level Denver Center
01:40AM 38.8386 -105.0092 77° East 546 628 35,000  Level Denver Center
01:41AM 38.8725 -104.8219 77° East 540 621 35,000  Level Denver Center
01:42AM 38.9072 -104.6336 77° East 540 621 35,000  Level Denver Center
01:43AM 38.9397 -104.4447 77° East 540 621 35,000  Level Denver Center
01:44AM 38.9717 -104.2575 78° East 537 618 35,000  Level Denver Center
01:45AM 39.0050 -104.0683 77° East 539 620 35,000  Level Denver Center
01:46AM 39.0364 -103.8844 78° East 526 605 35,000  Level Denver Center
01:47AM 39.0678 -103.7011 78° East 523 602 35,000 -60 Level Denver Center
01:48AM 39.0972 -103.5217 78° East 514 592 34,900  Descending Denver Center
01:49AM 39.1281 -103.3422 77° East 512 589 35,000  Climbing Denver Center
01:50AM 39.1569 -103.1639 78° East 507 583 34,900  Descending Denver Center
01:51AM 39.1856 -102.9850 78° East 506 582 35,000  Climbing Denver Center
01:52AM 39.2142 -102.8058 78° East 509 586 35,000  Level Denver Center
01:53AM 39.2425 -102.6261 78° East 509 586 35,000  Level Denver Center
01:54AM 39.2694 -102.4561 78° East 506 582 35,000  Level Denver Center
01:55AM 39.3014 -102.2542 78° East 514 592 35,000  Level Denver Center
01:56AM 39.3275 -102.0850 79° East 506 582 35,000  Level Denver Center
01:57AM 39.3550 -101.9078 79° East 502 578 35,000  Level Denver Center
01:58AM 39.3819 -101.7383 78° East 504 580 35,000  Level Denver Center
01:59AM 39.4358 -101.5458 70° East 513 590 35,000  Level Denver Center
02:00AM 39.4911 -101.3836 66° East 516 594 35,000  Level Denver Center
02:01AM 39.5461 -101.2228 66° East 513 590 35,000  Level Denver Center
02:02AM 39.6092 -101.0319 67° East 516 594 35,000  Level Denver Center
02:03AM 39.6628 -100.8678 67° East 517 595 35,000  Level Denver Center
02:04AM 39.7164 -100.7036 67° East 516 594 35,000  Level Denver Center
02:05AM 39.7792 -100.5131 67° East 514 592 35,000  Level Denver Center
02:06AM 39.8322 -100.3500 67° East 515 593 35,000  Level Denver Center
02:07AM 39.8806 -100.1972 68° East 513 590 35,000  Level Denver Center
02:08AM 39.9358 -100.0272 67° East 512 589 35,000  Level Denver Center
02:09AM 40.0017 -99.8233 67° East 509 586 35,000  Level Denver Center
02:10AM 40.0547 -99.6525 68° East 508 585 35,000  Level Denver Center
02:11AM 40.1081 -99.4825 68° East 508 585 35,000  Level Denver Center
02:12AM 40.1617 -99.3128 67° East 506 582 35,000  Level Denver Center
02:13AM 40.2133 -99.1422 68° East 507 583 35,000  Level Denver Center
02:14AM 40.2672 -98.9725 67° East 507 583 35,000  Level Denver Center
02:15AM 40.3186 -98.8017 68° East 507 583 35,000  Level Denver Center
02:16AM 40.3397 -98.7328 68° East 510 587 35,000  Level Minneapolis Center
02:17AM 40.3919 -98.5597 68° East 512 589 35,000  Level Minneapolis Center
02:18AM 40.4442 -98.3872 68° East 512 589 35,000  Level Minneapolis Center
02:19AM 40.4956 -98.2131 69° East 514 592 35,000  Level Minneapolis Center
02:20AM 40.5478 -98.0397 68° East 514 592 35,000  Level Minneapolis Center
02:21AM 40.5992 -97.8658 69° East 513 590 35,000  Level Minneapolis Center
02:22AM 40.6497 -97.6914 69° East 513 590 35,000  Level Minneapolis Center
02:23AM 40.7008 -97.5153 69° East 515 593 35,000  Level Minneapolis Center
02:24AM 40.7497 -97.3525 68° East 515 593 35,000  Level Minneapolis Center
02:25AM 40.7994 -97.1744 70° East 517 595 35,000  Level Minneapolis Center
02:26AM 40.8500 -96.9983 69° East 515 593 35,000  Level Minneapolis Center
02:27AM 40.9000 -96.8219 69° East 515 593 35,000  Level Minneapolis Center
02:28AM 40.9392 -96.6408 74° East 514 592 35,000  Level Minneapolis Center
02:29AM 40.9625 -96.4564 80° East 512 589 35,000  Level Minneapolis Center
02:30AM 40.9878 -96.2714 80° East 514 592 35,000  Level Minneapolis Center
02:31AM 41.0128 -96.0886 80° East 512 589 35,000  Level Minneapolis Center
02:32AM 41.0358 -95.9039 81° East 514 592 35,000  Level Minneapolis Center
02:33AM 41.0653 -95.6825 80° East 515 593 35,000  Level Minneapolis Center
02:34AM 41.0897 -95.4969 80° East 515 593 35,000  Level Minneapolis Center
02:35AM 41.1142 -95.3111 80° East 516 594 35,000  Level Minneapolis Center
02:36AM 41.1367 -95.1247 81° East 515 593 35,000  Level Minneapolis Center
02:37AM 41.1606 -94.9386 80° East 514 592 35,000  Level Minneapolis Center
02:38AM 41.1836 -94.7522 81° East 514 592 35,100 360 Climbing Minneapolis Center
02:39AM 41.2056 -94.5681 81° East 511 588 35,800 780 Climbing Minneapolis Center
02:40AM 41.2275 -94.3828 81° East 510 587 36,700 540 Climbing Minneapolis Center
02:41AM 41.2450 -94.2019 83° East 507 583 37,000 120 Climbing Minneapolis Center
02:42AM 41.2692 -94.0172 80° East 508 585 37,000  Level Minneapolis Center
02:43AM 41.2894 -93.8342 82° East 506 582 37,000 -60 Level Minneapolis Center
02:44AM 41.3097 -93.6514 82° East 503 579 36,900 -60 Descending Minneapolis Center
02:45AM 41.3308 -93.4681 81° East 504 580 36,900  Level Minneapolis Center
02:46AM 41.3514 -93.2831 82° East 506 582 37,000  Climbing Minneapolis Center
02:47AM 41.3708 -93.0986 82° East 506 582 37,000  Level Minneapolis Center
02:48AM 41.3900 -92.9122 82° East 508 585 37,000  Level Minneapolis Center
02:49AM 41.4022 -92.7256 85° East 508 585 37,000  Level Minneapolis Center
02:49AM 41.4089 -92.6092 86° East 513 590 37,000  Level Chicago Center
02:50AM 41.4208 -92.4228 85° East 509 586 37,000  Level Chicago Center
02:51AM 41.4319 -92.2492 85° East 507 583 37,000  Level Chicago Center
02:52AM 41.4442 -92.0628 85° East 510 587 37,000  Level Chicago Center
02:53AM 41.4556 -91.8783 85° East 508 585 37,000  Level Chicago Center
02:55AM 41.4792 -91.4714 85° East 507 583 37,000  Level Chicago Center
02:56AM 41.4872 -91.3144 86° East 507 583 37,000  Level Chicago Center
02:57AM 41.4967 -91.1264 86° East 508 585 37,000  Level Chicago Center
02:58AM 41.5075 -90.9375 86° East 509 586 37,000  Level Chicago Center
02:59AM 41.5167 -90.7469 86° East 513 590 37,000  Level Chicago Center
03:00AM 41.5264 -90.5581 86° East 510 587 37,000  Level Chicago Center
03:01AM 41.5353 -90.3678 86° East 513 590 37,000  Level Chicago Center
03:02AM 41.5442 -90.1764 86° East 514 592 37,000  Level Chicago Center
03:03AM 41.5525 -89.9847 87° East 516 594 37,000  Level Chicago Center
03:04AM 41.5603 -89.7964 87° East 508 585 37,000  Level Chicago Center
03:05AM 41.5675 -89.6064 87° East 509 586 37,000 -60 Level Chicago Center
03:06AM 41.5769 -89.3850 87° East 510 587 36,900 -60 Descending Chicago Center
03:07AM 41.5817 -89.1969 88° East 509 586 36,900  Level Chicago Center
03:08AM 41.5903 -89.0064 86° East 516 594 37,000  Climbing Chicago Center
03:09AM 41.5950 -88.8169 88° East 514 592 37,000  Level Chicago Center
03:10AM 41.6025 -88.6264 87° East 514 592 37,000  Level Chicago Center
03:11AM 41.6078 -88.4394 88° East 505 581 37,000 -60 Level Chicago Center
03:12AM 41.6131 -88.2522 88° East 503 579 36,900  Descending Chicago Center
03:13AM 41.6186 -88.0619 88° East 505 581 37,000  Climbing Chicago Center
03:14AM 41.6231 -87.9097 88° East 505 581 37,000  Level Chicago Center
03:15AM 41.6267 -87.7211 88° East 504 580 37,000  Level Chicago Center
03:16AM 41.6300 -87.5342 89° East 504 580 37,000  Level Chicago Center
03:18AM 41.6063 -87.3321 99° East  Level FlightAware Approximate
03:18AM 41.6372 -87.1594 99° East 507 583 37,000  Level Chicago Center
03:19AM 41.6414 -86.9722 88° East 507 583 37,000 -60 Level Chicago Center
03:20AM 41.6444 -86.7489 89° East 504 580 36,900  Descending Chicago Center
03:21AM 41.6464 -86.5672 89° East 507 583 37,000  Climbing Chicago Center
03:22AM 41.6494 -86.3803 89° East 507 583 37,000  Level Chicago Center
03:23AM 41.6508 -86.1919 89° East 509 586 37,000  Level Chicago Center
03:24AM 41.6522 -86.0050 89° East 505 581 37,000  Level Chicago Center
03:25AM 41.6536 -85.8189 89° East 502 578 37,000 -60 Level Chicago Center
03:26AM 41.6553 -85.6314 89° East 503 579 36,900  Descending Chicago Center
03:27AM 41.6544 -85.4589 90° East 501 577 37,000  Climbing Chicago Center
03:28AM 41.6547 -85.2722 90° East 503 579 37,000  Level Chicago Center
03:29AM 41.6575 -85.1167 89° East 532 612 37,000  Level Cleveland Center
03:30AM 41.6586 -84.9278 89° East 527 606 37,000  Level Cleveland Center
03:32AM 41.6578 -84.5494 90° East 511 588 37,000  Level Cleveland Center
03:33AM 41.6558 -84.3631 91° East 511 588 37,000  Level Cleveland Center
03:34AM 41.6508 -84.1961 92° East 506 582 37,000  Level Cleveland Center
03:35AM 41.6481 -84.0097 91° East 501 577 37,000  Level Cleveland Center
03:36AM 41.6475 -83.8178 90° East 501 577 37,000  Level Cleveland Center
03:37AM 41.6442 -83.6286 91° East 501 577 37,000  Level Cleveland Center
03:38AM 41.6414 -83.4172 91° East 509 586 37,000  Level Cleveland Center
03:39AM 41.6394 -83.2311 91° East 509 586 37,000  Level Cleveland Center
03:40AM 41.6356 -83.0364 91° East 518 596 37,000  Level Cleveland Center
03:41AM 41.6347 -82.8697 90° East 509 586 37,000  Level Cleveland Center
03:42AM 41.6303 -82.6750 92° East 514 592 37,000  Level Cleveland Center
03:43AM 41.6256 -82.4636 92° East 514 592 37,000  Level Cleveland Center
03:44AM 41.6222 -82.2719 91° East 515 593 37,000  Level Cleveland Center
03:45AM 41.6167 -82.0803 92° East 515 593 37,000  Level Cleveland Center
03:46AM 41.6128 -81.8856 91° East 515 593 37,000  Level Cleveland Center
03:47AM 41.6086 -81.6911 92° East 520 598 37,000  Level Cleveland Center
03:48AM 41.6017 -81.5189 93° East 520 598 37,000  Level Cleveland Center
03:49AM 41.5947 -81.3272 93° East 520 598 37,000  Level Cleveland Center
03:50AM 41.5897 -81.1356 92° East 521 600 37,000  Level Cleveland Center
03:51AM 41.5822 -80.9467 93° East 516 594 37,000  Level Cleveland Center
03:52AM 41.5742 -80.7525 93° East 516 594 37,000  Level Cleveland Center
03:53AM 41.5661 -80.5442 93° East 516 594 37,000  Level Cleveland Center
03:54AM 41.5594 -80.3583 93° East 516 594 37,000  Level Cleveland Center
03:55AM 41.5550 -80.1864 92° East 516 594 37,000  Level Cleveland Center
03:56AM 41.5436 -79.9783 94° East 516 594 37,000  Level Cleveland Center
03:57AM 41.5361 -79.7897 93° East 511 588 37,000  Level Cleveland Center
03:58AM 41.5264 -79.5986 94° East 511 588 37,000  Level Cleveland Center
03:59AM 41.5183 -79.4100 93° East 511 588 37,000  Level Cleveland Center
04:00AM 41.5078 -79.2189 94° East 511 588 37,000  Level Cleveland Center
04:01AM 41.4972 -79.0306 94° East 518 596 37,000  Level Cleveland Center
04:02AM 41.4881 -78.8394 94° East 518 596 37,000  Level Cleveland Center
04:04AM 41.4636 -78.4039 94° East 495 570 37,000  Level New York Center
04:05AM 41.4517 -78.2308 95° East 516 594 37,000  Level New York Center
04:06AM 41.4406 -78.0386 94° East 516 594 37,000  Level New York Center
04:07AM 41.4294 -77.8464 94° East 522 601 37,000  Level New York Center
04:09AM 41.4158 -77.6514 95° East 522 601 37,000  Level New York Center
04:09AM 41.4036 -77.4619 95° East 522 601 37,000  Level New York Center
04:10AM 41.3900 -77.2586 95° East 517 595 37,000  Level New York Center
04:12AM 41.3753 -77.0692 96° East 517 595 37,000  Level New York Center
04:12AM 41.3622 -76.8772 95° East 517 595 37,000  Level New York Center
04:14AM 41.3489 -76.6908 95° East 517 595 37,000 -420 Level New York Center
04:14AM 41.3350 -76.5044 96° East 517 595 36,200 -1,020 Descending New York Center
04:16AM 41.3217 -76.3044 95° East 529 609 35,000 -1,740 Descending New York Center
04:16AM 41.3069 -76.1264 96° East 529 609 32,800 -2,460 Descending New York Center
04:17AM 41.2922 -75.9400 96° East 528 608 30,300 -2,280 Descending New York Center
04:18AM 41.2753 -75.7539 97° East 514 592 28,200 -2,220 Descending New York Center
04:19AM 41.2347 -75.5742 107° East 502 578 25,900 -2,340 Descending New York Center
04:20AM 41.1789 -75.4106 114° Southeast 492 566 23,600 -1,440 Descending New York Center
04:21AM 41.1267 -75.2525 114° Southeast 487 560 23,000 -300 Descending New York Center
04:23AM 41.0758 -75.1033 114° Southeast 462 532 23,000 -60 Level New York Center
04:23AM 41.0214 -74.9350 113° Southeast 450 518 22,900  Descending New York Center
04:24AM 40.9853 -74.7786 107° East 450 518 23,000  Climbing New York Center
04:25AM 40.9675 -74.6211 98° East 442 509 22,900 -360 Descending New York Center
04:26AM 40.9519 -74.4608 97° East 437 503 22,400 -1,200 Descending New York Center
04:27AM 40.9339 -74.3033 99° East 437 503 20,600 -1,740 Descending New York Center
04:28AM 40.9133 -74.1486 100° East 432 497 19,000 -1,200 Descending New York Center
04:29AM 40.8833 -74.1000 129° Southeast 410 472 19,000 -300 Level New York TRACON
04:30AM 40.8333 -73.9833 119° Southeast 394 453 18,600 -1,860 Descending New York TRACON
04:31AM 40.7667 -73.8500 123° Southeast 385 443 15,300 -3,300 Descending New York TRACON
04:32AM 40.7167 -73.7333 119° Southeast 404 465 12,100 -2,640 Descending New York TRACON
04:33AM 40.6500 -73.6333 131° Southeast 353 406 10,100 -2,040 Descending New York TRACON
04:34AM 40.6167 -73.5333 114° Southeast 307 353 8,200 -2,040 Descending New York TRACON
04:35AM 40.6500 -73.4667 57° Northeast 308 354 6,400 -2,040 Descending New York TRACON
04:36AM 40.7167 -73.5000 339° North 257 296 4,400 -1,500 Descending New York TRACON
04:37AM 40.7500 -73.5833 298° West 205 236 3,200 -720 Descending New York TRACON
04:38AM 40.7833 -73.6333 311° West 183 211 3,000 -300 Descending New York TRACON
04:39AM 40.7667 -73.6833 246° West 199 229 2,700 -660 Descending New York TRACON
04:40AM 40.7167 -73.7167 207° Southwest 179 206 1,700 -900 Descending New York TRACON
04:41AM 40.6833 -73.7333 201° Southwest 131 151 1,000 -780 Descending New York TRACON
04:43AM 40.6333 -73.7667 227° Southwest  Level FlightAware Approximate
04:50AM 40.6398 -73.7789 227° Southwest  Level Estimated
04:51AM 40.6398 -73.7789 227° Southwest  Level Estimated
04:52AM 40.6398 -73.7789 227° Southwest  Level Estimated
04:53AM 40.6398 -73.7789 227° Southwest  Level Estimated